Austintown, Ohio
Current Conditions -  °F | °C
As of 4:51 AM on Friday 19 Dec 2014 (Local Time) from KYNG Reporting Station
Light Snow Light Snow  
Wind Chill: 20°   Ceiling: 500
Heat Index: 29°   Visibility: 2.5mi
Dew Point: 27°   Wind: 9mph
Humidity: 92%   Direction: 280°W
Pressure: 30.12"   Gusts: NA
Location:  41.1°N, 80.76°W
Report Text: KYNG 190951Z 28008KT 2 1/2SM -SN BR OVC005 M02/M03 A3012 RMK AO2 SLP213 P0000 T10171028
Loading
Personal Weather Stations






























Interactive Weather Map New forecast layout! Learn more

10-Day Weather Forecast

Advertisements
Track Severe Weather on mobile